Résultats TOP 2015

Classement Triathlon Original de Porquerolles / 26 septembre 2015
Epreuve longue distance (TOP)

CLNOMPRENOMDOSSEXECL SXCATCL CATCLUBTEMPSNAT 1CL N1NAT 2CL N2T1CL T1VTTCL VTTT2CL T2CAPCL CAP
1COUTURIER / COUTURIERMathieu / Thomas40M1SEN1Les Minots04:03:00.1800:21:021800:24:303000:02:13202:06:25100:00:271401:08:266
2COQUOIN / MENGOLLIYohann / Micka‘l34M2SEN2Peisey04:07:20.5200:17:12400:19:05400:08:323002:16:50200:00:301701:05:152
3HOLLANDE / MARTINIELuc / Laurent42M3VET1Levallois tri-pote04:08:42.3300:19:19900:19:39600:02:19302:21:03300:00:342901:05:504
4MAGNAN / MIRRASŽbastien / Serge30M4VET2Rousset Triathlon04:15:36.3100:21:402400:23:332100:02:42402:23:58400:00:302001:03:171
5VICTOR / BUATJean-Laurent / Antoine45M5VET3Les Sardines04:28:48.5200:19:461100:21:101000:04:361902:37:22900:00:393501:05:183
6JOST / DEWOSTNorman / Benjamin48M6SEN3Les LicenciŽs04:32:58.5700:20:351400:24:393300:03:01702:27:26500:00:332801:16:4710
7GODDARD / PORTANGUENFranois / CŽcil3M7VET4Courir ˆ Fuveau Tri104:33:07.1300:21:412500:23:492500:07:042702:32:08600:00:261301:08:025
8DANGY / RICARDOUHugues / Antoine11M8VET5Dangy / Ricardou04:35:34.8000:21:562800:23:522700:02:45500:00:00000:00:00000:00:000
9VERBECQUE / VERBECQUEPierre Franois / Jacques Olivier18M9VET6Spiderkeum04:36:59.2600:18:17700:19:38500:06:032502:34:47700:00:271501:17:5013
10ABALLONI / PƒJANRŽgis / Sophie41X1VET1Les Pejaba04:40:47.1500:17:03300:18:43300:01:44102:43:421400:00:383201:19:0014
11TOSI / CAYLAMarion / StŽphanie38F1SEN1Les Raideuses de Levallois04:45:35.0800:21:302000:23:402300:03:03802:42:161300:00:301801:14:397
12BURGERMEISTER / AZOULAYArnaud / Rudy8M10SEN4Les Peintres04:49:13.5200:21:392300:23:492600:05:292402:42:031200:00:05101:16:108
13BECUWE / DUPONTJean-Charles / Gilles17M11SEN5Les Gros04:49:44.8500:21:492700:00:00000:00:00000:00:00000:00:00000:00:000
14TERRASSON / BLANCHARDArnaud / Ingrid1X2SEN1Slow Motion04:51:57.7000:15:31100:16:36100:09:013302:38:051000:00:403701:32:0829
15SEUX / NAMYSLChristine / Franck9X3VET2TouFouTeam04:52:56.9600:22:153000:22:511900:03:421102:46:211700:00:332501:17:1712
16COLAGIACOMI / BAJODEKBruno / Brice32M12SEN6BBBC04:56:11.1500:18:10600:19:56700:08:373102:40:001100:00:251201:29:0727
17GOULIN / ADAMThibault / Tanguy4M13SEN7Goulin / Adam04:59:13.9500:22:383400:25:473600:04:351802:48:381900:00:281601:17:1111
18VIGNERON / COLLOTFabrice / Gilles10M14VET7Les Tontons Flingeurs05:00:13.4700:19:231000:21:161100:07:582902:48:321800:00:383101:22:2918
19CHARLET / DUVERDIERNicolas / RŽmi16M15VET8Cap Bollne05:01:04.2600:21:171900:24:202900:03:481202:44:421600:00:312201:26:3025
20METAIS / LANCOUCyril / Lo•c47M16VET9Arrow Team05:01:26.2200:22:483500:25:253400:02:59602:36:40800:01:054201:32:3230
21DAMOY / ALLARD LATOURDHubert / Franck22M17VET10Half Fit Tri05:02:58.3000:19:551200:22:181500:04:321702:52:132200:00:383301:23:2419
22CARON / CARONNathalie / Jean-Paul25X4VET3Napoutz05:04:48.6800:21:332200:23:452400:04:031502:52:542400:01:084401:21:2817
23GESLIN / BRUNEELFranois-Xavier / Joris28M18SEN8MD05:04:55.6500:25:564000:26:533800:04:061602:43:521500:00:16401:23:5620
24DETIENNE / BERTRANDYann / Cyrille44M19SEN9B.G. 3 REVIVAL05:04:56.6200:16:37200:17:54200:13:134103:00:062800:00:322401:16:379
25VILLERS / COURTEAUDFrŽdŽric / Julien21M20SEN10Les Loulous Surfeurs05:11:11.5300:20:431600:22:251700:04:001302:51:182000:00:533901:31:5628
26LEROY / FAHYCatherine / Beno”t39X5VET4Leroy / Fahy05:12:57.0200:20:361500:21:591400:04:512203:00:453000:00:413801:24:0821
27VEYRINES / MABYBeno”t / Patrice14M21VET11Team du CÏur05:13:04.5500:21:332100:25:303500:09:083402:52:262300:00:22901:24:0922
28VILLAR / SANNAYannick / Olivier29M22SEN11Gomorra05:13:38.9200:20:491700:22:211600:13:434202:51:482100:00:241101:24:3624
29LENOIR / TOURREPatrice / Nicole50X6VET5Les Tourtereaux05:14:23.2300:22:142900:22:351800:04:001403:00:422900:00:403601:24:1523
30LETARTRE / LETARTRERomain / DorothŽe20X7SEN2LES GUEUX N¡105:23:00.6700:22:323100:23:092000:18:544602:57:422500:00:301901:20:1716
31HALARY / BORDETBarbara / Virginie43F2VET1La Mouette05:24:41.8500:28:404700:29:004200:04:422103:02:173100:00:19501:19:4815
32VAN REES / BERTOLINIDavid / Rodolphe26M23SEN12Van Rees / Bertolini05:32:38.6000:23:323700:20:37900:12:093902:58:462700:00:393401:36:5935
33DUC / LEDRUOlivier / Vital24M24VET12Band of Brothers 205:34:10.1600:26:344300:29:094300:03:24902:58:462600:01:004101:35:2133
34DORIGNY / PETITFabian / Caroline2X8SEN3Les Sardines05:44:11.1100:18:06500:21:301200:21:584703:15:493400:00:20601:26:3226
35DONATI / BUISSETJean-Franois / Luc35M25VET13Les Docs du Sud05:49:02.7100:24:083900:27:394000:03:381003:18:343600:00:373001:34:3032
36MAGRON / BENAYOUNFrŽdŽric / Philippe15M26VET14Les Champions du Monde05:49:31.8400:22:373300:24:092800:11:243803:12:473300:00:14301:38:2338
37PEILLON / GOUEDARD-COMTESylvain / Romaric33M27SEN13Mir05:51:39.4400:27:084400:28:494100:08:453203:02:433200:00:21701:43:5744
38ARNAUD / PEILLONFrŽdŽric / GrŽgory12M28SEN14A l'Arrache05:51:39.5400:21:442600:23:362200:10:303703:16:263500:00:221001:39:0341
39ROMIER / BAILLYNils / Pierre-Jean36M29SEN15Team Truffade06:11:46.5700:20:251300:21:431300:15:054303:33:093900:00:302101:40:5742
40MULLIEZ / LEGRANDSŽverine / Beno”t13X9VET6Melem06:15:30.2900:28:294600:29:344400:06:522603:25:583700:00:22801:44:1845
41ALLAEYS / ALLAEYSEmmanuel / Natacha27X10VET7Orange06:15:30.9400:28:244500:30:074600:10:073603:28:203800:00:322301:38:0436
42MARCO / MARCUELLOChristine / Annick5F3VET2GNT ONE06:17:15.1500:22:343200:24:303100:05:102303:50:044300:01:074301:33:5431
43FERRARI / JULLIENThierry / FrŽdŽric19M30VET15Heckle et Jeckle06:18:22.8000:18:52800:20:33800:15:504503:43:594200:00:544001:38:1837
44PEAUCELLE / LE CLAIRFlorence / Delphine6F4SEN2Les Mobylettes06:18:46.9500:26:324100:27:223900:12:164003:33:434100:00:332601:38:2539
45LIBAUDE / BACHLaurence / Virginie7F5VET3Les Mobylettes 206:18:47.4600:26:324200:29:364500:10:013503:33:424000:00:332701:38:2740
46VANCAUWENBERGHE / BARROISFabrice / Nicolas31M31SEN16Les Big Chocos06:40:58.9900:23:103600:24:353200:04:402004:05:414500:00:08201:42:4743
47GUILLOT / GUILLOTSŽverine / Jean-Baptiste37X11VET8Salins06:42:43.2600:23:453800:26:423700:15:474403:58:224400:01:154501:36:5534
Suivez-nous
En poursuivant votre navigation, vous acceptez l'utilisation de cookies, notamment pour optimiser votre navigation ou provenant de partenaires tiers, pour vous proposer des contenus définis en considération de vos centres d'intérêts, pour réaliser des statistiques.

Pour en savoir plus, retrouvez ici notre politique de protection des données personnelles.
ACCEPTER